createdAt,value
2022-08-12T00:00:02.096Z,98635.47
2022-08-12T00:02:43.942Z,98637.69
2022-08-12T00:05:27.192Z,98639.34
2022-08-12T00:08:11.599Z,98641.75
2022-08-12T00:10:55.185Z,98631.59
2022-08-12T00:13:37.030Z,98634.53
2022-08-12T00:16:19.100Z,98636.19
2022-08-12T00:19:01.813Z,98632.31
2022-08-12T00:21:43.988Z,98633.06
2022-08-12T00:24:28.197Z,98633.25
2022-08-12T00:27:11.069Z,98631.41
2022-08-12T00:29:53.291Z,98632.13
2022-08-12T00:32:36.706Z,98631.97
2022-08-12T00:35:20.501Z,98639.69
2022-08-12T00:38:05.536Z,98641.16
2022-08-12T00:40:47.570Z,98634.53
2022-08-12T00:43:18.820Z,98635.78
2022-08-12T00:46:00.808Z,98642.44
2022-08-12T00:48:30.335Z,98644.06
2022-08-12T00:51:01.405Z,98649.63
2022-08-12T00:53:31.694Z,98650.69
2022-08-12T00:56:02.170Z,98641.31
2022-08-12T00:58:33.544Z,98645.53
2022-08-12T01:01:11.257Z,98640.03
2022-08-12T01:03:55.000Z,98638.53
2022-08-12T01:06:37.388Z,98635.56
2022-08-12T01:09:20.056Z,98643.50
2022-08-12T01:11:49.900Z,98638.13
2022-08-12T01:14:23.842Z,98636.28
2022-08-12T01:16:55.451Z,98643.28
2022-08-12T01:19:26.131Z,98635.69
2022-08-12T01:22:33.192Z,98638.28
2022-08-12T01:25:22.079Z,98623.88
2022-08-12T01:27:53.252Z,98630.69
2022-08-12T01:30:22.725Z,98628.09
2022-08-12T01:32:53.670Z,98632.09
2022-08-12T01:35:24.077Z,98621.00
2022-08-12T01:38:04.569Z,98632.03
2022-08-12T01:40:40.496Z,98627.81
2022-08-12T01:43:13.580Z,98621.16
2022-08-12T01:46:01.262Z,98618.19
2022-08-12T01:49:15.731Z,98623.53
2022-08-12T01:52:20.856Z,98625.72
2022-08-12T01:54:46.164Z,98628.97
2022-08-12T01:57:58.866Z,98635.38
2022-08-12T02:00:44.902Z,98625.78
2022-08-12T02:04:02.022Z,98627.41
2022-08-12T02:07:09.478Z,98619.81
2022-08-12T02:10:05.691Z,98615.41
2022-08-12T02:12:47.834Z,98607.44
2022-08-12T02:15:27.031Z,98597.50
2022-08-12T02:18:15.747Z,98603.75
2022-08-12T02:21:05.005Z,98603.75
2022-08-12T02:23:34.876Z,98595.50
2022-08-12T02:26:08.532Z,98608.88
2022-08-12T02:28:39.636Z,98603.72
2022-08-12T02:31:11.122Z,98602.09
2022-08-12T02:33:41.600Z,98598.06
2022-08-12T02:36:10.992Z,98597.66
2022-08-12T02:38:40.975Z,98597.81
2022-08-12T02:41:13.158Z,98590.06
2022-08-12T02:43:53.528Z,98597.59
2022-08-12T02:46:34.406Z,98589.69
2022-08-12T02:49:14.821Z,98591.84
2022-08-12T02:51:47.302Z,98590.84
2022-08-12T02:54:16.534Z,98589.88
2022-08-12T02:56:50.571Z,98582.84
2022-08-12T02:59:22.994Z,98594.63
2022-08-12T03:02:03.509Z,98588.84
2022-08-12T03:04:50.704Z,98587.22
2022-08-12T03:07:49.983Z,98592.22
2022-08-12T03:10:25.132Z,98594.56
2022-08-12T03:13:07.580Z,98599.66
2022-08-12T03:15:37.401Z,98602.75
2022-08-12T03:18:24.623Z,98604.34
2022-08-12T03:20:56.774Z,98594.41
2022-08-12T03:23:29.903Z,98601.72
2022-08-12T03:26:03.281Z,98597.28
2022-08-12T03:28:48.017Z,98587.13
2022-08-12T03:31:17.242Z,98597.75
2022-08-12T03:34:01.297Z,98598.50
2022-08-12T03:36:35.499Z,98595.00
2022-08-12T03:39:35.820Z,98588.22
2022-08-12T03:42:32.318Z,98597.41
2022-08-12T03:45:27.905Z,98596.47
2022-08-12T03:48:18.731Z,98595.31
2022-08-12T03:51:02.517Z,98607.44
2022-08-12T03:53:45.634Z,98598.97
2022-08-12T03:56:27.874Z,98596.94
2022-08-12T03:59:09.932Z,98610.72
2022-08-12T04:01:40.735Z,98598.97
2022-08-12T04:04:11.991Z,98599.69
2022-08-12T04:06:47.557Z,98600.63
2022-08-12T04:09:17.017Z,98611.47
2022-08-12T04:11:59.851Z,98604.66
2022-08-12T04:14:30.292Z,98603.72
2022-08-12T04:16:59.812Z,98605.41
2022-08-12T04:19:29.366Z,98606.16
2022-08-12T04:22:02.978Z,98598.06
2022-08-12T04:24:40.694Z,98600.09
2022-08-12T04:27:12.188Z,98600.63
2022-08-12T04:30:17.182Z,98598.53
2022-08-12T04:32:31.865Z,98598.06
2022-08-12T04:35:01.517Z,98597.31
2022-08-12T04:37:30.723Z,98600.69
2022-08-12T04:40:28.144Z,98607.53
2022-08-12T04:42:58.890Z,98611.38
2022-08-12T04:45:28.194Z,98612.97
2022-08-12T04:47:57.742Z,98611.72
2022-08-12T04:50:35.792Z,98615.72
2022-08-12T04:53:10.174Z,98611.50
2022-08-12T04:55:45.926Z,98623.66
2022-08-12T04:58:15.246Z,98609.78
2022-08-12T05:00:59.165Z,98616.09
2022-08-12T05:03:29.149Z,98613.09
2022-08-12T05:06:19.629Z,98617.19
2022-08-12T05:09:00.796Z,98614.09
2022-08-12T05:11:30.513Z,98614.50
2022-08-12T05:14:03.373Z,98622.88
2022-08-12T05:16:36.004Z,98628.97
2022-08-12T05:19:15.367Z,98620.75
2022-08-12T05:21:49.172Z,98629.09
2022-08-12T05:24:18.548Z,98623.66
2022-08-12T05:26:52.087Z,98620.94
2022-08-12T05:30:07.559Z,98619.53
2022-08-12T05:32:11.524Z,98617.56
2022-08-12T05:34:40.977Z,98620.56
2022-08-12T05:37:10.221Z,98611.03
2022-08-12T05:39:39.758Z,98615.53
2022-08-12T05:42:12.606Z,98612.47
2022-08-12T05:44:41.940Z,98618.75
2022-08-12T05:47:12.023Z,98620.47
2022-08-12T05:49:42.020Z,98634.16
2022-08-12T05:52:11.583Z,98622.97
2022-08-12T05:54:57.105Z,98634.06
2022-08-12T05:57:26.947Z,98624.72
2022-08-12T05:59:56.597Z,98630.28
2022-08-12T06:02:26.407Z,98629.75
2022-08-12T06:04:57.750Z,98627.53
2022-08-12T06:07:59.689Z,98628.25
2022-08-12T06:10:16.358Z,98634.47
2022-08-12T06:12:49.386Z,98632.91
2022-08-12T06:15:22.932Z,98628.69
2022-08-12T06:17:52.145Z,98621.38
2022-08-12T06:20:27.001Z,98627.88
2022-08-12T06:22:58.999Z,98637.25
2022-08-12T06:25:29.322Z,98632.19
2022-08-12T06:28:07.690Z,98632.72
2022-08-12T06:30:39.393Z,98635.22
2022-08-12T06:33:23.079Z,98635.31
2022-08-12T06:35:58.896Z,98637.03
2022-08-12T06:38:30.689Z,98631.91
2022-08-12T06:41:14.996Z,98626.44
2022-08-12T06:44:04.469Z,98633.47
2022-08-12T06:46:36.496Z,98630.13
2022-08-12T06:49:07.064Z,98626.44
2022-08-12T06:51:36.413Z,98635.88
2022-08-12T06:54:05.982Z,98624.88
2022-08-12T06:59:26.118Z,98617.97
2022-08-12T07:01:55.701Z,98613.50
2022-08-12T07:04:40.294Z,98613.41
2022-08-12T07:07:10.911Z,98613.16
2022-08-12T07:10:04.680Z,98613.03
2022-08-12T07:12:34.484Z,98614.13
2022-08-12T07:15:03.941Z,98620.44
2022-08-12T07:17:36.735Z,98612.91
2022-08-12T07:20:29.866Z,98615.53
2022-08-12T07:23:03.338Z,98621.38
2022-08-12T07:25:40.876Z,98614.56
2022-08-12T07:28:23.471Z,98611.81
2022-08-12T07:30:54.294Z,98611.00
2022-08-12T07:33:28.137Z,98617.63
2022-08-12T07:35:59.394Z,98616.94
2022-08-12T07:38:37.082Z,98621.44
2022-08-12T07:41:14.532Z,98610.13
2022-08-12T07:43:50.575Z,98614.91
2022-08-12T07:46:22.648Z,98620.66
2022-08-12T07:48:54.002Z,98625.16
2022-08-12T07:51:25.374Z,98626.13
2022-08-12T07:54:00.842Z,98630.28
2022-08-12T07:56:33.675Z,98630.38
2022-08-12T07:59:03.244Z,98628.94
2022-08-12T08:01:33.301Z,98627.38
2022-08-12T08:04:18.704Z,98634.78
2022-08-12T08:06:48.715Z,98635.13
2022-08-12T08:09:21.298Z,98631.31
2022-08-12T08:12:03.577Z,98620.28
2022-08-12T08:14:32.967Z,98629.25
2022-08-12T08:17:05.012Z,98636.69
2022-08-12T08:20:03.299Z,98633.09
2022-08-12T08:22:41.387Z,98629.41
2022-08-12T08:25:36.574Z,98635.44
2022-08-12T08:28:05.408Z,98624.19
2022-08-12T08:30:35.538Z,98629.00
2022-08-12T08:33:15.544Z,98620.91
2022-08-12T08:35:54.433Z,98622.94
2022-08-12T08:38:33.145Z,98619.94
2022-08-12T08:42:13.981Z,98621.31
2022-08-12T08:44:08.013Z,98612.16
2022-08-12T08:46:38.215Z,98609.81
2022-08-12T08:49:08.392Z,98609.34
2022-08-12T08:51:39.068Z,98599.28
2022-08-12T08:54:12.610Z,98597.91
2022-08-12T08:56:46.467Z,98600.16
2022-08-12T08:59:16.408Z,98598.53
2022-08-12T09:01:46.194Z,98600.19
2022-08-12T09:05:12.752Z,98594.28
2022-08-12T09:07:17.213Z,98600.28
2022-08-12T09:10:02.741Z,98597.47
2022-08-12T09:12:54.863Z,98602.03
2022-08-12T09:15:35.716Z,98600.41
2022-08-12T09:18:14.328Z,98604.56
2022-08-12T09:24:07.488Z,98593.59
2022-08-12T09:30:11.454Z,98583.03
2022-08-12T09:32:29.640Z,98590.97
2022-08-12T09:35:18.606Z,98596.28
2022-08-12T09:37:59.107Z,98597.25
2022-08-12T09:41:01.866Z,98581.25
2022-08-12T09:43:32.838Z,98585.13
2022-08-12T09:46:07.123Z,98585.19
2022-08-12T09:48:56.254Z,98582.28
2022-08-12T09:51:37.331Z,98591.81
2022-08-12T09:54:32.630Z,98592.84
2022-08-12T09:58:07.986Z,98574.28
2022-08-12T10:00:14.856Z,98573.19
2022-08-12T10:02:43.110Z,98577.34
2022-08-12T10:05:17.777Z,98569.88
2022-08-12T10:07:49.646Z,98566.97
2022-08-12T10:10:24.321Z,98550.94
2022-08-12T10:13:19.436Z,98558.44
2022-08-12T10:16:05.590Z,98562.31
2022-08-12T10:18:51.651Z,98555.34
2022-08-12T10:21:36.365Z,98555.63
2022-08-12T10:24:11.445Z,98553.13
2022-08-12T10:26:56.246Z,98557.47
2022-08-12T10:30:37.385Z,98547.06
2022-08-12T10:32:44.009Z,98542.69
2022-08-12T10:35:17.496Z,98553.03
2022-08-12T10:38:35.547Z,98551.97
2022-08-12T10:40:57.499Z,98543.22
2022-08-12T10:43:55.027Z,98544.19
2022-08-12T10:46:30.429Z,98544.03
2022-08-12T10:49:06.288Z,98531.50
2022-08-12T10:52:32.521Z,98525.47
2022-08-12T10:54:43.209Z,98519.00
2022-08-12T10:57:18.451Z,98530.47
2022-08-12T11:00:31.126Z,98533.38
2022-08-12T11:04:25.900Z,98520.94
2022-08-12T11:07:07.466Z,98521.53
2022-08-12T11:08:43.425Z,98519.97
2022-08-12T11:12:34.693Z,98513.53
2022-08-12T11:14:48.280Z,98512.59
2022-08-12T11:17:43.653Z,98515.47
2022-08-12T11:19:56.733Z,98518.63
2022-08-12T11:22:25.945Z,98523.06
2022-08-12T11:24:59.429Z,98517.97
2022-08-12T11:27:29.619Z,98519.25
2022-08-12T11:30:02.101Z,98511.31
2022-08-12T11:32:38.930Z,98513.84
2022-08-12T11:35:09.276Z,98506.88
2022-08-12T11:37:58.321Z,98509.19
2022-08-12T11:40:28.906Z,98503.09
2022-08-12T11:43:17.182Z,98500.44
2022-08-12T11:45:52.927Z,98506.00
2022-08-12T11:48:26.959Z,98503.47
2022-08-12T11:50:56.794Z,98510.53
2022-08-12T11:53:59.458Z,98498.66
2022-08-12T11:56:15.351Z,98504.69
2022-08-12T12:01:58.987Z,98500.66
2022-08-12T12:04:29.487Z,98504.06
2022-08-12T12:07:07.290Z,98505.78
2022-08-12T12:09:51.870Z,98498.34
2022-08-12T12:12:23.577Z,98497.31
2022-08-12T12:14:55.746Z,98493.59
2022-08-12T12:17:38.509Z,98487.09
2022-08-12T12:20:11.563Z,98500.66
2022-08-12T12:22:43.572Z,98514.88
2022-08-12T12:25:14.604Z,98511.53
2022-08-12T12:28:04.095Z,98504.72
2022-08-12T12:30:37.413Z,98497.75
2022-08-12T12:33:08.295Z,98492.75
2022-08-12T12:36:06.114Z,98487.88
2022-08-12T12:38:28.317Z,98488.50
2022-08-12T12:40:57.708Z,98487.47
2022-08-12T12:43:42.438Z,98488.31
2022-08-12T12:46:13.317Z,98473.56
2022-08-12T12:48:44.629Z,98471.94
2022-08-12T12:51:48.869Z,98476.13
2022-08-12T12:54:10.564Z,98472.63
2022-08-12T12:56:42.285Z,98474.22
2022-08-12T12:59:33.822Z,98472.38
2022-08-12T13:02:08.150Z,98479.22
2022-08-12T13:04:38.151Z,98475.88
2022-08-12T13:07:08.448Z,98469.59
2022-08-12T13:09:37.680Z,98468.03
2022-08-12T13:12:12.659Z,98458.59
2022-08-12T13:14:42.149Z,98456.44
2022-08-12T13:17:17.670Z,98448.44
2022-08-12T13:19:49.883Z,98457.91
2022-08-12T13:22:23.451Z,98448.13
2022-08-12T13:24:56.380Z,98453.03
2022-08-12T13:27:35.750Z,98450.22
2022-08-12T13:30:13.915Z,98453.53
2022-08-12T13:32:57.144Z,98466.03
2022-08-12T13:36:06.080Z,98459.06
2022-08-12T13:38:39.427Z,98458.47
2022-08-12T13:41:11.221Z,98446.59
2022-08-12T13:43:41.989Z,98440.44
2022-08-12T13:46:12.549Z,98432.44
2022-08-12T13:48:44.697Z,98437.22
2022-08-12T13:51:14.742Z,98436.31
2022-08-12T13:53:57.834Z,98431.28
2022-08-12T13:56:35.066Z,98424.00
2022-08-12T13:59:07.989Z,98417.78
2022-08-12T14:01:40.747Z,98401.47
2022-08-12T14:04:11.652Z,98414.38
2022-08-12T14:06:41.443Z,98400.84
2022-08-12T14:09:15.433Z,98412.69
2022-08-12T14:11:51.213Z,98414.22
2022-08-12T14:14:31.663Z,98419.94
2022-08-12T14:17:09.770Z,98417.84
2022-08-12T14:20:01.324Z,98411.50
2022-08-12T14:22:32.128Z,98408.41
2022-08-12T14:25:02.896Z,98408.00
2022-08-12T14:28:03.380Z,98392.09
2022-08-12T14:30:28.729Z,98395.66
2022-08-12T14:33:02.860Z,98395.66
2022-08-12T14:35:41.264Z,98390.47
2022-08-12T14:38:25.988Z,98395.84
2022-08-12T14:41:03.880Z,98387.03
2022-08-12T14:43:58.756Z,98388.88
2022-08-12T14:46:28.021Z,98380.97
2022-08-12T14:48:57.623Z,98386.75
2022-08-12T14:52:44.082Z,98393.31
2022-08-12T14:57:20.083Z,98379.09
2022-08-12T15:00:05.561Z,98381.41
2022-08-12T15:02:35.262Z,98388.69
2022-08-12T15:05:04.583Z,98389.81
2022-08-12T15:07:48.716Z,98376.38
2022-08-12T15:10:31.259Z,98391.31
2022-08-12T15:13:07.712Z,98390.56
2022-08-12T15:15:45.809Z,98387.13
2022-08-12T15:18:21.195Z,98388.81
2022-08-12T15:20:51.981Z,98387.50
2022-08-12T15:23:23.179Z,98384.06
2022-08-12T15:26:02.706Z,98386.47
2022-08-12T15:28:37.572Z,98386.63
2022-08-12T15:31:09.608Z,98379.88
2022-08-12T15:33:51.143Z,98377.38
2022-08-12T15:36:54.438Z,98370.63
2022-08-12T15:39:17.077Z,98366.88
2022-08-12T15:41:49.431Z,98370.94
2022-08-12T15:44:38.735Z,98364.63
2022-08-12T15:47:09.134Z,98371.03
2022-08-12T15:49:54.457Z,98362.72
2022-08-12T15:52:31.105Z,98368.44
2022-08-12T15:55:06.573Z,98352.84
2022-08-12T15:57:41.589Z,98359.41
2022-08-12T16:00:29.043Z,98353.28
2022-08-12T16:03:02.019Z,98350.78
2022-08-12T16:06:13.345Z,98353.78
2022-08-12T16:08:27.648Z,98358.03
2022-08-12T16:10:57.606Z,98353.78
2022-08-12T16:13:34.732Z,98349.50
2022-08-12T16:16:22.780Z,98353.66
2022-08-12T16:19:01.956Z,98359.19
2022-08-12T16:21:50.362Z,98357.44
2022-08-12T16:24:22.355Z,98352.22
2022-08-12T16:26:54.417Z,98347.25
2022-08-12T16:29:29.528Z,98352.03
2022-08-12T16:32:24.433Z,98352.63
2022-08-12T16:35:00.553Z,98353.91
2022-08-12T16:38:24.958Z,98360.13
2022-08-12T16:40:23.783Z,98342.50
2022-08-12T16:43:01.451Z,98343.94
2022-08-12T16:46:05.455Z,98352.44
2022-08-12T16:48:35.405Z,98339.78
2022-08-12T16:51:11.883Z,98338.31
2022-08-12T16:53:45.384Z,98341.50
2022-08-12T16:56:18.193Z,98337.56
2022-08-12T16:58:47.724Z,98335.16
2022-08-12T17:01:19.907Z,98338.41
2022-08-12T17:04:04.605Z,98343.59
2022-08-12T17:06:41.769Z,98335.69
2022-08-12T17:09:16.895Z,98338.28
2022-08-12T17:11:49.782Z,98335.97
2022-08-12T17:14:23.244Z,98331.53
2022-08-12T17:16:55.143Z,98328.50
2022-08-12T17:20:28.842Z,98327.06
2022-08-12T17:22:16.808Z,98322.56
2022-08-12T17:24:55.409Z,98325.06
2022-08-12T17:27:26.260Z,98331.16
2022-08-12T17:30:03.644Z,98329.50
2022-08-12T17:32:37.160Z,98329.25
2022-08-12T17:35:19.599Z,98329.16
2022-08-12T17:37:50.971Z,98334.13
2022-08-12T17:40:35.673Z,98331.97
2022-08-12T17:43:56.124Z,98338.19
2022-08-12T17:46:00.053Z,98336.50
2022-08-12T17:48:35.053Z,98340.53
2022-08-12T17:51:15.525Z,98337.41
2022-08-12T17:54:10.336Z,98340.09
2022-08-12T17:56:37.689Z,98339.25
2022-08-12T17:59:07.589Z,98333.53
2022-08-12T18:01:37.598Z,98338.19
2022-08-12T18:04:22.380Z,98342.13
2022-08-12T18:06:57.372Z,98342.59
2022-08-12T18:09:31.796Z,98339.59
2022-08-12T18:12:14.837Z,98341.44
2022-08-12T18:14:56.531Z,98345.47
2022-08-12T18:17:28.860Z,98347.81
2022-08-12T18:20:06.080Z,98341.97
2022-08-12T18:22:38.470Z,98353.44
2022-08-12T18:26:11.550Z,98354.66
2022-08-12T18:28:15.720Z,98364.16
2022-08-12T18:30:53.412Z,98366.00
2022-08-12T18:33:26.722Z,98362.84
2022-08-12T18:35:58.326Z,98375.16
2022-08-12T18:38:28.340Z,98370.53
2022-08-12T18:41:10.634Z,98377.13
2022-08-12T18:43:59.402Z,98369.69
2022-08-12T18:46:57.174Z,98387.34
2022-08-12T18:49:39.337Z,98386.84
2022-08-12T18:52:11.952Z,98389.13
2022-08-12T18:54:53.996Z,98386.47
2022-08-12T18:58:07.309Z,98390.69
2022-08-12T19:00:20.879Z,98398.44
2022-08-12T19:02:53.265Z,98395.78
2022-08-12T19:05:54.180Z,98402.81
2022-08-12T19:08:14.425Z,98393.53
2022-08-12T19:10:50.247Z,98390.06
2022-08-12T19:13:34.029Z,98399.84
2022-08-12T19:16:12.730Z,98397.63
2022-08-12T19:18:45.025Z,98394.88
2022-08-12T19:21:15.967Z,98399.22
2022-08-12T19:24:07.058Z,98404.88
2022-08-12T19:26:36.704Z,98392.94
2022-08-12T19:29:08.399Z,98405.16
2022-08-12T19:31:57.361Z,98398.50
2022-08-12T19:37:38.626Z,98403.84
2022-08-12T19:40:32.568Z,98405.97
2022-08-12T19:43:17.955Z,98402.03
2022-08-12T19:45:57.152Z,98408.66
2022-08-12T19:48:32.632Z,98403.38
2022-08-12T19:51:08.892Z,98405.47
2022-08-12T19:53:58.369Z,98402.53
2022-08-12T19:56:32.427Z,98399.66
2022-08-12T19:59:14.801Z,98391.63
2022-08-12T20:02:01.351Z,98398.19
2022-08-12T20:04:32.443Z,98400.53
2022-08-12T20:07:03.112Z,98395.00
2022-08-12T20:09:38.729Z,98396.91
2022-08-12T20:12:18.119Z,98396.59
2022-08-12T20:14:53.599Z,98397.34
2022-08-12T20:17:23.734Z,98393.56
2022-08-12T20:20:19.144Z,98398.06
2022-08-12T20:22:52.393Z,98397.47
2022-08-12T20:25:28.133Z,98390.00
2022-08-12T20:28:12.754Z,98397.19
2022-08-12T20:30:53.387Z,98396.13
2022-08-12T20:33:32.299Z,98398.47
2022-08-12T20:36:12.794Z,98400.06
2022-08-12T20:38:45.978Z,98402.97
2022-08-12T20:41:19.020Z,98401.22
2022-08-12T20:43:51.986Z,98392.13
2022-08-12T20:46:22.210Z,98390.94
2022-08-12T20:48:54.751Z,98386.50
2022-08-12T20:51:24.846Z,98389.88
2022-08-12T20:53:59.433Z,98391.63
2022-08-12T20:56:34.669Z,98395.41
2022-08-12T20:59:10.682Z,98400.81
2022-08-12T21:01:47.407Z,98394.78
2022-08-12T21:04:31.376Z,98395.22
2022-08-12T21:07:08.396Z,98393.56
2022-08-12T21:09:42.501Z,98397.03
2022-08-12T21:12:32.802Z,98395.53
2022-08-12T21:15:23.860Z,98403.53
2022-08-12T21:18:11.198Z,98397.09
2022-08-12T21:20:54.840Z,98406.03
2022-08-12T21:23:25.454Z,98405.28
2022-08-12T21:26:01.437Z,98402.91
2022-08-12T21:28:33.594Z,98403.19
2022-08-12T21:32:34.394Z,98398.78
2022-08-12T21:34:07.430Z,98399.78
2022-08-12T21:36:43.371Z,98399.31
2022-08-12T21:39:27.874Z,98400.28
2022-08-12T21:42:07.217Z,98398.50
2022-08-12T21:45:46.408Z,98408.41
2022-08-12T21:47:29.714Z,98411.41
2022-08-12T21:50:06.431Z,98408.34
2022-08-12T21:52:40.964Z,98401.88
2022-08-12T21:55:18.495Z,98406.38
2022-08-12T21:57:54.894Z,98398.25
2022-08-12T22:00:35.136Z,98411.97
2022-08-12T22:04:07.857Z,98410.19
2022-08-12T22:06:31.159Z,98406.16
2022-08-12T22:09:15.729Z,98421.75
2022-08-12T22:11:56.387Z,98414.56
2022-08-12T22:14:30.627Z,98412.53
2022-08-12T22:17:01.574Z,98412.22
2022-08-12T22:19:35.270Z,98412.44
2022-08-12T22:22:05.676Z,98409.75
2022-08-12T22:24:35.927Z,98410.91
2022-08-12T22:27:31.899Z,98418.72
2022-08-12T22:30:16.674Z,98415.78
2022-08-12T22:32:54.741Z,98417.31
2022-08-12T22:35:55.481Z,98417.00
2022-08-12T22:38:29.839Z,98419.63
2022-08-12T22:41:04.287Z,98415.81
2022-08-12T22:43:59.661Z,98409.75
2022-08-12T22:46:43.221Z,98416.09
2022-08-12T22:49:37.088Z,98412.75
2022-08-12T22:52:18.721Z,98408.34
2022-08-12T22:55:02.759Z,98417.03
2022-08-12T22:57:53.409Z,98414.63
2022-08-12T23:00:28.281Z,98403.63
2022-08-12T23:03:03.648Z,98406.78
2022-08-12T23:05:57.781Z,98401.09
2022-08-12T23:08:29.875Z,98404.81
2022-08-12T23:11:06.174Z,98392.25
2022-08-12T23:13:54.846Z,98401.88
2022-08-12T23:16:33.746Z,98400.78
2022-08-12T23:19:18.227Z,98395.66
2022-08-12T23:22:05.711Z,98401.41
2022-08-12T23:24:55.367Z,98397.53
2022-08-12T23:27:50.242Z,98389.47
2022-08-12T23:30:32.117Z,98401.44
2022-08-12T23:33:13.605Z,98395.75
2022-08-12T23:36:03.489Z,98404.41
2022-08-12T23:38:34.663Z,98399.69
2022-08-12T23:41:06.069Z,98391.75
2022-08-12T23:43:39.370Z,98399.16
2022-08-12T23:46:10.281Z,98408.22
2022-08-12T23:48:40.868Z,98401.78
2022-08-12T23:51:22.834Z,98400.28
2022-08-12T23:54:07.432Z,98395.88
2022-08-12T23:56:38.878Z,98395.72
2022-08-12T23:59:14.016Z,98402.91
